createdAt,value
2022-09-10T00:01:19.022Z,15.47
2022-09-10T00:03:47.195Z,15.52
2022-09-10T00:06:14.979Z,15.61
2022-09-10T00:08:42.907Z,15.64
2022-09-10T00:11:11.216Z,15.70
2022-09-10T00:13:40.466Z,15.68
2022-09-10T00:16:10.155Z,15.62
2022-09-10T00:18:38.241Z,15.70
2022-09-10T00:21:11.444Z,15.67
2022-09-10T00:23:39.259Z,15.58
2022-09-10T00:26:19.465Z,15.51
2022-09-10T00:28:47.338Z,15.58
2022-09-10T00:31:15.594Z,15.59
2022-09-10T00:33:43.421Z,15.65
2022-09-10T00:36:19.480Z,15.64
2022-09-10T00:38:49.641Z,15.67
2022-09-10T00:41:18.280Z,15.66
2022-09-10T00:43:53.165Z,15.58
2022-09-10T00:46:37.857Z,15.59
2022-09-10T00:49:15.603Z,15.59
2022-09-10T00:51:43.489Z,15.53
2022-09-10T00:54:11.269Z,15.53
2022-09-10T00:56:39.055Z,15.62
2022-09-10T00:59:07.433Z,15.62
2022-09-10T01:01:35.531Z,15.70
2022-09-10T01:04:04.850Z,15.73
2022-09-10T01:06:32.794Z,15.78
2022-09-10T01:09:01.094Z,15.77
2022-09-10T01:11:55.733Z,15.80
2022-09-10T01:14:29.956Z,15.80
2022-09-10T01:17:13.217Z,15.84
2022-09-10T01:19:55.294Z,15.82
2022-09-10T01:22:47.886Z,15.78
2022-09-10T01:25:27.774Z,15.72
2022-09-10T01:27:55.933Z,15.70
2022-09-10T01:30:38.313Z,15.76
2022-09-10T01:33:24.168Z,15.76
2022-09-10T01:35:54.106Z,15.75
2022-09-10T01:38:28.322Z,15.72
2022-09-10T01:40:56.111Z,15.70
2022-09-10T01:43:24.414Z,15.71
2022-09-10T01:46:07.402Z,15.71
2022-09-10T01:48:55.841Z,15.73
2022-09-10T01:52:00.690Z,15.70
2022-09-10T01:54:51.752Z,15.69
2022-09-10T01:58:06.634Z,15.74
2022-09-10T02:00:48.733Z,15.74
2022-09-10T02:03:21.197Z,15.77
2022-09-10T02:05:55.127Z,15.80
2022-09-10T02:08:33.358Z,15.82
2022-09-10T02:11:05.822Z,15.89
2022-09-10T02:13:34.107Z,15.90
2022-09-10T02:16:09.510Z,15.93
2022-09-10T02:19:02.713Z,16.00
2022-09-10T02:21:30.578Z,16.01
2022-09-10T02:24:07.010Z,16.06
2022-09-10T02:26:41.224Z,16.06
2022-09-10T02:29:13.625Z,16.07
2022-09-10T02:31:41.937Z,16.04
2022-09-10T02:37:18.064Z,16.03
2022-09-10T02:40:11.250Z,16.04
2022-09-10T02:42:47.844Z,16.09
2022-09-10T02:45:16.119Z,16.07
2022-09-10T02:47:44.179Z,16.07
2022-09-10T02:50:17.077Z,16.04
2022-09-10T02:52:47.185Z,15.99
2022-09-10T02:55:17.742Z,16.06
2022-09-10T02:57:50.237Z,16.01
2022-09-10T03:00:23.372Z,15.91
2022-09-10T03:02:51.760Z,15.78
2022-09-10T03:05:24.830Z,15.69
2022-09-10T03:07:58.384Z,15.74
2022-09-10T03:10:26.337Z,15.76
2022-09-10T03:12:55.589Z,15.65
2022-09-10T03:15:24.111Z,15.65
2022-09-10T03:17:56.988Z,15.56
2022-09-10T03:20:29.438Z,15.52
2022-09-10T03:22:58.621Z,15.55
2022-09-10T03:25:31.215Z,15.57
2022-09-10T03:28:25.358Z,15.58
2022-09-10T03:30:53.670Z,15.52
2022-09-10T03:33:24.347Z,15.59
2022-09-10T03:35:54.524Z,15.67
2022-09-10T03:38:22.388Z,15.73
2022-09-10T03:40:55.887Z,15.80
2022-09-10T03:43:48.901Z,15.83
2022-09-10T03:46:21.429Z,15.82
2022-09-10T03:48:55.429Z,15.79
2022-09-10T03:51:28.075Z,15.74
2022-09-10T03:54:00.408Z,15.71
2022-09-10T03:56:42.808Z,15.70
2022-09-10T03:59:10.992Z,15.81
2022-09-10T04:01:45.411Z,15.82
2022-09-10T04:04:18.129Z,15.85
2022-09-10T04:06:50.625Z,15.85
2022-09-10T04:09:27.620Z,15.85
2022-09-10T04:12:00.786Z,15.81
2022-09-10T04:14:35.180Z,15.80
2022-09-10T04:17:28.157Z,15.79
2022-09-10T04:20:00.897Z,15.79
2022-09-10T04:22:34.176Z,15.80
2022-09-10T04:25:02.037Z,15.81
2022-09-10T04:27:42.234Z,15.85
2022-09-10T04:30:12.176Z,15.91
2022-09-10T04:32:42.986Z,15.96
2022-09-10T04:35:16.876Z,15.94
2022-09-10T04:37:44.741Z,15.94
2022-09-10T04:40:20.436Z,15.91
2022-09-10T04:42:54.970Z,15.93
2022-09-10T04:45:31.931Z,16.02
2022-09-10T04:48:07.236Z,15.92
2022-09-10T04:51:14.296Z,15.96
2022-09-10T04:53:43.168Z,15.98
2022-09-10T04:56:16.698Z,16.00
2022-09-10T04:58:45.480Z,16.00
2022-09-10T05:01:13.941Z,15.93
2022-09-10T05:03:47.683Z,15.89
2022-09-10T05:06:21.557Z,15.87
2022-09-10T05:08:52.300Z,15.85
2022-09-10T05:11:26.691Z,15.82
2022-09-10T05:14:00.180Z,15.75
2022-09-10T05:16:32.940Z,15.75
2022-09-10T05:19:00.926Z,15.64
2022-09-10T05:21:37.702Z,15.55
2022-09-10T05:24:10.331Z,15.51
2022-09-10T05:26:38.284Z,15.47
2022-09-10T05:29:12.013Z,15.48
2022-09-10T05:31:52.104Z,15.47
2022-09-10T05:34:21.624Z,15.47
2022-09-10T05:37:03.062Z,15.60
2022-09-10T05:39:35.751Z,15.55
2022-09-10T05:42:30.149Z,15.68
2022-09-10T05:45:12.193Z,15.73
2022-09-10T05:47:45.150Z,15.77
2022-09-10T05:50:13.213Z,15.76
2022-09-10T05:52:41.484Z,15.69
2022-09-10T05:55:14.529Z,15.68
2022-09-10T05:57:50.013Z,15.68
2022-09-10T06:00:22.829Z,15.56
2022-09-10T06:02:52.361Z,15.53
2022-09-10T06:05:25.000Z,15.48
2022-09-10T06:07:58.535Z,15.38
2022-09-10T06:10:30.997Z,15.39
2022-09-10T06:13:24.160Z,15.41
2022-09-10T06:15:52.131Z,15.44
2022-09-10T06:18:20.408Z,15.42
2022-09-10T06:20:51.351Z,15.37
2022-09-10T06:23:24.182Z,15.39
2022-09-10T06:26:10.163Z,15.45
2022-09-10T06:28:44.390Z,15.45
2022-09-10T06:31:19.187Z,15.42
2022-09-10T06:33:48.423Z,15.43
2022-09-10T06:36:22.109Z,15.43
2022-09-10T06:38:59.061Z,15.46
2022-09-10T06:41:47.915Z,15.45
2022-09-10T06:44:17.777Z,15.49
2022-09-10T06:47:28.264Z,15.50
2022-09-10T06:49:37.767Z,15.54
2022-09-10T06:52:05.879Z,15.57
2022-09-10T06:54:41.470Z,15.57
2022-09-10T06:57:14.090Z,15.61
2022-09-10T06:59:45.083Z,15.68
2022-09-10T07:02:18.635Z,15.72
2022-09-10T07:04:51.251Z,15.77
2022-09-10T07:07:24.066Z,15.82
2022-09-10T07:09:52.513Z,15.97
2022-09-10T07:12:30.016Z,16.11
2022-09-10T07:15:04.146Z,16.14
2022-09-10T07:17:36.613Z,16.13
2022-09-10T07:20:07.445Z,16.02
2022-09-10T07:22:43.357Z,15.96
2022-09-10T07:25:16.484Z,15.89
2022-09-10T07:27:48.956Z,15.89
2022-09-10T07:30:48.057Z,15.88
2022-09-10T07:33:16.086Z,15.87
2022-09-10T07:35:57.732Z,15.91
2022-09-10T07:38:26.248Z,15.95
2022-09-10T07:40:54.683Z,15.98
2022-09-10T07:43:27.838Z,16.00
2022-09-10T07:46:04.137Z,16.01
2022-09-10T07:48:35.582Z,16.02
2022-09-10T07:51:07.457Z,16.01
2022-09-10T07:53:36.537Z,16.02
2022-09-10T07:56:15.203Z,16.06
2022-09-10T07:58:43.142Z,16.12
2022-09-10T08:01:16.141Z,16.14
2022-09-10T08:03:49.739Z,16.12
2022-09-10T08:06:20.827Z,16.11
2022-09-10T08:09:01.321Z,16.13
2022-09-10T08:11:43.310Z,16.18
2022-09-10T08:14:25.342Z,16.14
2022-09-10T08:17:03.495Z,16.21
2022-09-10T08:19:31.377Z,16.19
2022-09-10T08:22:04.960Z,16.23
2022-09-10T08:24:40.619Z,16.26
2022-09-10T08:27:14.517Z,16.31
2022-09-10T08:29:45.398Z,16.35
2022-09-10T08:32:15.923Z,16.35
2022-09-10T08:34:48.238Z,16.38
2022-09-10T08:37:21.084Z,16.41
2022-09-10T08:39:52.190Z,16.44
2022-09-10T08:42:29.020Z,16.48
2022-09-10T08:45:17.422Z,16.51
2022-09-10T08:47:59.814Z,16.56
2022-09-10T08:51:00.931Z,16.54
2022-09-10T08:53:44.998Z,16.59
2022-09-10T08:56:16.812Z,16.63
2022-09-10T08:59:24.122Z,16.68
2022-09-10T09:02:05.911Z,16.69
2022-09-10T09:04:48.333Z,16.70
2022-09-10T09:07:23.766Z,16.69
2022-09-10T09:09:54.942Z,16.70
2022-09-10T09:12:40.516Z,16.71
2022-09-10T09:15:26.900Z,16.75
2022-09-10T09:18:00.854Z,16.82
2022-09-10T09:20:47.674Z,16.85
2022-09-10T09:24:12.108Z,16.91
2022-09-10T09:26:48.763Z,16.94
2022-09-10T09:29:25.953Z,16.97
2022-09-10T09:32:22.772Z,16.99
2022-09-10T09:34:52.486Z,16.95
2022-09-10T09:37:31.229Z,16.89
2022-09-10T09:40:18.515Z,16.92
2022-09-10T09:43:08.067Z,16.91
2022-09-10T09:45:39.893Z,16.95
2022-09-10T09:48:08.536Z,16.95
2022-09-10T09:50:42.508Z,16.97
2022-09-10T09:53:26.536Z,17.00
2022-09-10T09:55:56.153Z,17.10
2022-09-10T09:58:25.754Z,17.19
2022-09-10T10:01:06.200Z,17.29
2022-09-10T10:03:54.156Z,17.37
2022-09-10T10:06:29.902Z,17.44
2022-09-10T10:09:25.080Z,17.53
2022-09-10T10:11:57.849Z,17.51
2022-09-10T10:14:41.044Z,17.44
2022-09-10T10:17:46.497Z,17.43
2022-09-10T10:20:21.975Z,17.37
2022-09-10T10:22:49.978Z,17.35
2022-09-10T10:25:59.412Z,17.30
2022-09-10T10:28:32.588Z,17.20
2022-09-10T10:31:05.977Z,16.93
2022-09-10T10:33:38.590Z,16.74
2022-09-10T10:36:17.008Z,16.59
2022-09-10T10:38:59.312Z,16.43
2022-09-10T10:41:42.994Z,16.34
2022-09-10T10:44:24.190Z,16.36
2022-09-10T10:47:26.116Z,16.41
2022-09-10T10:50:01.799Z,16.52
2022-09-10T10:52:29.679Z,16.55
2022-09-10T10:55:12.105Z,16.69
2022-09-10T10:58:10.048Z,16.77
2022-09-10T11:00:43.446Z,16.98
2022-09-10T11:03:45.971Z,17.13
2022-09-10T11:06:22.751Z,17.25
2022-09-10T11:09:12.286Z,17.52
2022-09-10T11:11:56.437Z,17.69
2022-09-10T11:14:29.429Z,17.80
2022-09-10T11:17:03.867Z,17.99
2022-09-10T11:20:17.636Z,18.10
2022-09-10T11:22:51.633Z,18.22
2022-09-10T11:25:37.654Z,18.45
2022-09-10T11:28:14.247Z,18.58
2022-09-10T11:30:42.988Z,18.67
2022-09-10T11:33:17.626Z,18.64
2022-09-10T11:35:49.669Z,18.59
2022-09-10T11:38:38.776Z,18.64
2022-09-10T11:41:28.652Z,18.65
2022-09-10T11:44:27.419Z,18.79
2022-09-10T11:46:59.900Z,18.86
2022-09-10T11:50:06.490Z,18.88
2022-09-10T11:52:59.492Z,18.89
2022-09-10T11:56:00.076Z,18.87
2022-09-10T11:59:09.864Z,18.85
2022-09-10T12:02:03.857Z,18.87
2022-09-10T12:04:42.716Z,18.84
2022-09-10T12:07:22.445Z,18.92
2022-09-10T12:10:39.865Z,19.02
2022-09-10T12:13:11.173Z,19.38
2022-09-10T12:15:44.655Z,19.76
2022-09-10T12:18:26.816Z,19.90
2022-09-10T12:24:36.048Z,19.54
2022-09-10T12:27:07.953Z,19.49
2022-09-10T12:30:01.121Z,19.51
2022-09-10T12:32:37.970Z,19.55
2022-09-10T12:35:31.481Z,19.58
2022-09-10T12:38:36.887Z,19.68
2022-09-10T12:41:06.205Z,19.88
2022-09-10T12:44:00.466Z,20.56
2022-09-10T12:46:33.453Z,21.03
2022-09-10T12:49:13.963Z,21.12
2022-09-10T12:52:07.999Z,21.12
2022-09-10T12:55:00.121Z,21.23
2022-09-10T12:57:36.407Z,21.70
2022-09-10T13:00:20.813Z,22.02
2022-09-10T13:03:09.510Z,22.32
2022-09-10T13:05:52.616Z,21.71
2022-09-10T13:08:28.616Z,20.98
2022-09-10T13:11:01.155Z,20.81
2022-09-10T13:13:53.051Z,20.63
2022-09-10T13:16:47.877Z,20.56
2022-09-10T13:19:16.840Z,20.55
2022-09-10T13:21:49.359Z,20.98
2022-09-10T13:24:36.846Z,21.78
2022-09-10T13:27:18.796Z,22.37
2022-09-10T13:30:05.580Z,22.37
2022-09-10T13:32:50.548Z,22.22
2022-09-10T13:35:55.644Z,22.58
2022-09-10T13:38:36.212Z,22.44
2022-09-10T13:41:29.618Z,22.57
2022-09-10T13:44:39.073Z,22.30
2022-09-10T13:48:02.500Z,21.86
2022-09-10T13:50:40.512Z,21.67
2022-09-10T13:53:10.162Z,21.83
2022-09-10T13:55:50.134Z,22.52
2022-09-10T13:58:37.093Z,22.80
2022-09-10T14:01:13.311Z,23.29
2022-09-10T14:03:50.895Z,23.19
2022-09-10T14:06:38.590Z,23.24
2022-09-10T14:09:06.550Z,22.98
2022-09-10T14:11:38.448Z,22.70
2022-09-10T14:14:14.180Z,22.11
2022-09-10T14:16:49.209Z,21.74
2022-09-10T14:19:49.020Z,21.45
2022-09-10T14:22:18.530Z,21.40
2022-09-10T14:25:02.783Z,21.22
2022-09-10T14:27:37.489Z,21.13
2022-09-10T14:30:17.763Z,21.16
2022-09-10T14:32:51.381Z,20.97
2022-09-10T14:35:44.233Z,21.16
2022-09-10T14:38:43.722Z,21.50
2022-09-10T14:41:24.028Z,21.74
2022-09-10T14:43:56.392Z,21.85
2022-09-10T14:47:01.108Z,21.76
2022-09-10T14:49:46.606Z,21.70
2022-09-10T14:52:14.540Z,21.74
2022-09-10T14:54:44.327Z,21.71
2022-09-10T14:57:16.155Z,21.59
2022-09-10T14:59:44.591Z,21.57
2022-09-10T15:02:20.213Z,21.40
2022-09-10T15:04:51.106Z,21.22
2022-09-10T15:07:21.728Z,21.19
2022-09-10T15:09:49.474Z,21.00
2022-09-10T15:12:33.873Z,20.93
2022-09-10T15:15:01.831Z,20.58
2022-09-10T15:17:36.361Z,20.52
2022-09-10T15:20:04.744Z,20.42
2022-09-10T15:22:41.251Z,20.43
2022-09-10T15:25:22.577Z,20.47
2022-09-10T15:27:50.387Z,20.46
2022-09-10T15:30:24.273Z,20.44
2022-09-10T15:33:04.029Z,20.46
2022-09-10T15:35:32.256Z,20.44
2022-09-10T15:38:02.881Z,20.43
2022-09-10T15:40:33.951Z,20.35
2022-09-10T15:43:07.222Z,20.33
2022-09-10T15:45:36.785Z,20.19
2022-09-10T15:48:05.238Z,20.18
2022-09-10T15:50:33.007Z,20.17
2022-09-10T15:53:03.155Z,20.20
2022-09-10T15:55:32.055Z,20.18
2022-09-10T15:57:59.788Z,20.13
2022-09-10T16:00:32.926Z,20.07
2022-09-10T16:03:03.073Z,20.04
2022-09-10T16:05:35.724Z,20.00
2022-09-10T16:08:04.167Z,19.94
2022-09-10T16:10:39.632Z,19.91
2022-09-10T16:13:12.559Z,19.83
2022-09-10T16:15:46.418Z,19.75
2022-09-10T16:18:25.513Z,19.73
2022-09-10T16:21:06.460Z,19.68
2022-09-10T16:23:38.774Z,19.61
2022-09-10T16:26:07.327Z,19.59
2022-09-10T16:28:42.045Z,19.56
2022-09-10T16:31:31.559Z,19.49
2022-09-10T16:34:12.000Z,19.44
2022-09-10T16:36:43.307Z,19.41
2022-09-10T16:39:16.395Z,19.28
2022-09-10T16:41:45.978Z,19.23
2022-09-10T16:44:18.983Z,19.19
2022-09-10T16:47:20.921Z,19.17
2022-09-10T16:49:53.448Z,19.05
2022-09-10T16:52:21.690Z,19.00
2022-09-10T16:54:54.171Z,18.98
2022-09-10T16:57:28.038Z,18.96
2022-09-10T17:00:02.152Z,18.94
2022-09-10T17:02:36.433Z,18.87
2022-09-10T17:05:09.477Z,18.83
2022-09-10T17:07:49.593Z,18.82
2022-09-10T17:10:28.163Z,18.79
2022-09-10T17:13:02.812Z,18.70
2022-09-10T17:15:36.545Z,18.64
2022-09-10T17:18:10.512Z,18.54
2022-09-10T17:20:50.127Z,18.44
2022-09-10T17:23:23.055Z,18.41
2022-09-10T17:25:56.558Z,18.34
2022-09-10T17:28:29.234Z,18.27
2022-09-10T17:31:01.807Z,18.15
2022-09-10T17:33:35.398Z,18.03
2022-09-10T17:36:08.732Z,17.98
2022-09-10T17:38:39.228Z,17.98
2022-09-10T17:41:10.314Z,17.84
2022-09-10T17:43:39.286Z,17.78
2022-09-10T17:46:08.705Z,17.71
2022-09-10T17:48:39.938Z,17.61
2022-09-10T17:51:12.666Z,17.59
2022-09-10T17:53:46.274Z,17.53
2022-09-10T17:56:16.033Z,17.42
2022-09-10T17:58:45.382Z,17.37
2022-09-10T18:01:23.076Z,17.34
2022-09-10T18:03:55.870Z,17.26
2022-09-10T18:06:29.353Z,17.28
2022-09-10T18:09:06.159Z,17.21
2022-09-10T18:11:46.119Z,17.12
2022-09-10T18:14:19.628Z,17.12
2022-09-10T18:17:00.569Z,17.16
2022-09-10T18:19:34.430Z,17.13
2022-09-10T18:22:27.600Z,17.11
2022-09-10T18:24:58.333Z,17.15
2022-09-10T18:27:30.304Z,17.15
2022-09-10T18:30:02.988Z,17.17
2022-09-10T18:32:36.651Z,17.19
2022-09-10T18:35:09.621Z,17.23
2022-09-10T18:37:45.335Z,17.25
2022-09-10T18:40:19.688Z,17.25
2022-09-10T18:42:52.806Z,17.23
2022-09-10T18:45:23.726Z,17.25
2022-09-10T18:47:54.617Z,17.26
2022-09-10T18:50:42.482Z,17.25
2022-09-10T18:53:14.605Z,17.27
2022-09-10T18:55:46.320Z,17.28
2022-09-10T18:58:18.612Z,17.28
2022-09-10T19:01:01.920Z,17.28
2022-09-10T19:03:30.036Z,17.29
2022-09-10T19:05:58.019Z,17.28
2022-09-10T19:08:31.922Z,17.26
2022-09-10T19:11:05.294Z,17.24
2022-09-10T19:13:37.634Z,17.20
2022-09-10T19:16:08.519Z,17.21
2022-09-10T19:18:36.723Z,17.23
2022-09-10T19:21:09.471Z,17.22
2022-09-10T19:23:38.065Z,17.22
2022-09-10T19:26:12.890Z,17.21
2022-09-10T19:28:44.049Z,17.21
2022-09-10T19:31:13.352Z,17.16
2022-09-10T19:34:06.597Z,17.17
2022-09-10T19:36:36.545Z,17.16
2022-09-10T19:39:09.690Z,17.14
2022-09-10T19:41:40.468Z,17.11
2022-09-10T19:44:13.934Z,17.10
2022-09-10T19:46:43.178Z,17.09
2022-09-10T19:49:11.354Z,17.12
2022-09-10T19:51:42.923Z,17.10
2022-09-10T19:54:15.392Z,17.10
2022-09-10T19:56:48.623Z,17.09
2022-09-10T19:59:22.425Z,17.07
2022-09-10T20:01:51.242Z,17.06
2022-09-10T20:04:32.740Z,17.06
2022-09-10T20:07:04.175Z,17.02
2022-09-10T20:09:40.075Z,16.97
2022-09-10T20:12:19.414Z,16.97
2022-09-10T20:14:52.241Z,16.98
2022-09-10T20:17:20.326Z,16.97
2022-09-10T20:19:48.440Z,16.98
2022-09-10T20:22:22.030Z,16.98
2022-09-10T20:24:57.701Z,17.04
2022-09-10T20:27:27.740Z,17.09
2022-09-10T20:30:07.863Z,17.10
2022-09-10T20:32:38.244Z,17.15
2022-09-10T20:35:18.482Z,17.13
2022-09-10T20:37:51.818Z,17.11
2022-09-10T20:40:25.592Z,17.10
2022-09-10T20:42:59.026Z,17.10
2022-09-10T20:45:26.952Z,17.12
2022-09-10T20:48:11.793Z,17.11
2022-09-10T20:51:04.366Z,17.08
2022-09-10T20:53:37.678Z,17.07
2022-09-10T20:56:10.312Z,17.07
2022-09-10T20:58:56.818Z,17.04
2022-09-10T21:01:41.363Z,16.97
2022-09-10T21:04:17.524Z,16.95
2022-09-10T21:06:48.324Z,16.91
2022-09-10T21:09:30.868Z,16.85
2022-09-10T21:12:07.083Z,16.86
2022-09-10T21:14:38.696Z,16.79
2022-09-10T21:17:15.976Z,16.74
2022-09-10T21:19:48.976Z,16.73
2022-09-10T21:22:29.139Z,16.73
2022-09-10T21:25:09.290Z,16.73
2022-09-10T21:27:43.617Z,16.73
2022-09-10T21:30:17.224Z,16.71
2022-09-10T21:32:49.711Z,16.73
2022-09-10T21:35:22.311Z,16.71
2022-09-10T21:37:55.044Z,16.72
2022-09-10T21:40:27.538Z,16.69
2022-09-10T21:42:55.420Z,16.70
2022-09-10T21:45:29.244Z,16.71
2022-09-10T21:48:07.791Z,16.71
2022-09-10T21:50:35.761Z,16.67
2022-09-10T21:53:15.673Z,16.63
2022-09-10T21:55:44.045Z,16.60
2022-09-10T21:58:12.398Z,16.63
2022-09-10T22:00:45.081Z,16.66
2022-09-10T22:03:13.089Z,16.68
2022-09-10T22:05:53.136Z,16.64
2022-09-10T22:08:24.012Z,16.68
2022-09-10T22:10:54.166Z,16.74
2022-09-10T22:13:24.119Z,16.71
2022-09-10T22:15:59.176Z,16.66
2022-09-10T22:18:39.384Z,16.67
2022-09-10T22:21:12.234Z,16.63
2022-09-10T22:23:44.921Z,16.59
2022-09-10T22:26:32.642Z,16.54
2022-09-10T22:29:06.200Z,16.54
2022-09-10T22:31:38.658Z,16.51
2022-09-10T22:34:16.397Z,16.50
2022-09-10T22:36:45.312Z,16.51
2022-09-10T22:40:00.754Z,16.50
2022-09-10T22:42:28.770Z,16.46
2022-09-10T22:44:59.194Z,16.45
2022-09-10T22:47:32.743Z,16.39
2022-09-10T22:50:05.426Z,16.39
2022-09-10T22:52:37.964Z,16.51
2022-09-10T22:55:09.037Z,16.44
2022-09-10T22:57:37.493Z,16.42
2022-09-10T23:00:10.026Z,16.38
2022-09-10T23:02:39.026Z,16.38
2022-09-10T23:05:09.923Z,16.34
2022-09-10T23:07:42.481Z,16.32
2022-09-10T23:10:22.500Z,16.30
2022-09-10T23:13:00.402Z,16.27
2022-09-10T23:15:31.736Z,16.20
2022-09-10T23:18:04.342Z,16.17
2022-09-10T23:20:39.434Z,16.17
2022-09-10T23:23:12.921Z,16.18
2022-09-10T23:25:44.220Z,16.18
2022-09-10T23:28:15.012Z,16.12
2022-09-10T23:30:47.562Z,16.17
2022-09-10T23:33:27.738Z,16.16
2022-09-10T23:36:09.694Z,16.16
2022-09-10T23:38:40.974Z,16.16
2022-09-10T23:41:09.893Z,16.16
2022-09-10T23:43:43.707Z,16.14
2022-09-10T23:46:14.743Z,16.12
2022-09-10T23:48:47.707Z,16.16
2022-09-10T23:51:16.686Z,16.15
2022-09-10T23:53:49.251Z,16.13
2022-09-10T23:56:18.649Z,16.13
2022-09-10T23:59:01.255Z,16.12
